sensor_id;sensor_type;location;lat;lon;timestamp;P1;durP1;ratioP1;P2;durP2;ratioP2
56005;SDS011;41888;44.696;10.522;2023-03-09T00:00:56;6.47;;;3.08;;
56005;SDS011;41888;44.696;10.522;2023-03-09T00:03:23;7.93;;;4.20;;
56005;SDS011;41888;44.696;10.522;2023-03-09T00:05:56;6.20;;;3.53;;
56005;SDS011;41888;44.696;10.522;2023-03-09T00:08:24;8.70;;;3.75;;
56005;SDS011;41888;44.696;10.522;2023-03-09T00:10:53;9.45;;;3.88;;
56005;SDS011;41888;44.696;10.522;2023-03-09T00:13:20;8.32;;;4.22;;
56005;SDS011;41888;44.696;10.522;2023-03-09T00:15:47;13.07;;;5.00;;
56005;SDS011;41888;44.696;10.522;2023-03-09T00:18:17;10.60;;;4.18;;
56005;SDS011;41888;44.696;10.522;2023-03-09T00:20:44;8.15;;;4.15;;
56005;SDS011;41888;44.696;10.522;2023-03-09T00:23:10;5.82;;;3.53;;
56005;SDS011;41888;44.696;10.522;2023-03-09T00:25:36;9.10;;;4.25;;
56005;SDS011;41888;44.696;10.522;2023-03-09T00:28:03;6.57;;;4.05;;
56005;SDS011;41888;44.696;10.522;2023-03-09T00:30:30;12.32;;;5.35;;
56005;SDS011;41888;44.696;10.522;2023-03-09T00:32:56;9.35;;;5.18;;
56005;SDS011;41888;44.696;10.522;2023-03-09T00:35:22;13.00;;;5.78;;
56005;SDS011;41888;44.696;10.522;2023-03-09T00:37:49;9.70;;;5.00;;
56005;SDS011;41888;44.696;10.522;2023-03-09T00:40:15;15.93;;;5.25;;
56005;SDS011;41888;44.696;10.522;2023-03-09T00:42:41;9.90;;;5.47;;
56005;SDS011;41888;44.696;10.522;2023-03-09T00:45:08;11.32;;;5.00;;
56005;SDS011;41888;44.696;10.522;2023-03-09T00:47:35;11.20;;;6.13;;
56005;SDS011;41888;44.696;10.522;2023-03-09T00:50:02;14.27;;;4.80;;
56005;SDS011;41888;44.696;10.522;2023-03-09T00:52:29;9.20;;;6.03;;
56005;SDS011;41888;44.696;10.522;2023-03-09T00:54:55;11.73;;;5.43;;
56005;SDS011;41888;44.696;10.522;2023-03-09T00:57:22;8.10;;;5.13;;
56005;SDS011;41888;44.696;10.522;2023-03-09T00:59:49;9.00;;;4.93;;
56005;SDS011;41888;44.696;10.522;2023-03-09T01:02:17;14.38;;;6.18;;
56005;SDS011;41888;44.696;10.522;2023-03-09T01:04:45;12.48;;;5.35;;
56005;SDS011;41888;44.696;10.522;2023-03-09T01:07:12;10.50;;;5.32;;
56005;SDS011;41888;44.696;10.522;2023-03-09T01:09:38;8.13;;;4.82;;
56005;SDS011;41888;44.696;10.522;2023-03-09T01:12:05;12.52;;;6.72;;
56005;SDS011;41888;44.696;10.522;2023-03-09T01:14:33;12.88;;;5.43;;
56005;SDS011;41888;44.696;10.522;2023-03-09T01:16:59;9.55;;;4.68;;
56005;SDS011;41888;44.696;10.522;2023-03-09T01:19:26;9.32;;;5.43;;
56005;SDS011;41888;44.696;10.522;2023-03-09T01:21:52;10.10;;;5.00;;
56005;SDS011;41888;44.696;10.522;2023-03-09T01:24:19;9.57;;;5.13;;
56005;SDS011;41888;44.696;10.522;2023-03-09T01:26:45;12.15;;;5.38;;
56005;SDS011;41888;44.696;10.522;2023-03-09T01:29:11;6.85;;;4.35;;
56005;SDS011;41888;44.696;10.522;2023-03-09T01:31:37;11.82;;;6.13;;
56005;SDS011;41888;44.696;10.522;2023-03-09T01:34:03;11.13;;;6.38;;
56005;SDS011;41888;44.696;10.522;2023-03-09T01:36:30;9.85;;;4.97;;
56005;SDS011;41888;44.696;10.522;2023-03-09T01:38:56;10.88;;;5.35;;
56005;SDS011;41888;44.696;10.522;2023-03-09T01:41:22;8.98;;;4.25;;
56005;SDS011;41888;44.696;10.522;2023-03-09T01:43:49;9.13;;;5.10;;
56005;SDS011;41888;44.696;10.522;2023-03-09T01:49:03;11.63;;;5.07;;
56005;SDS011;41888;44.696;10.522;2023-03-09T01:51:45;6.65;;;4.03;;
56005;SDS011;41888;44.696;10.522;2023-03-09T01:54:24;9.05;;;4.20;;
56005;SDS011;41888;44.696;10.522;2023-03-09T01:57:13;8.27;;;3.95;;
56005;SDS011;41888;44.696;10.522;2023-03-09T02:00:09;9.23;;;3.75;;
56005;SDS011;41888;44.696;10.522;2023-03-09T02:02:39;10.10;;;4.65;;
56005;SDS011;41888;44.696;10.522;2023-03-09T02:05:09;9.85;;;4.50;;
56005;SDS011;41888;44.696;10.522;2023-03-09T02:07:39;10.05;;;5.05;;
56005;SDS011;41888;44.696;10.522;2023-03-09T02:10:13;9.55;;;4.47;;
56005;SDS011;41888;44.696;10.522;2023-03-09T02:12:49;9.57;;;4.18;;
56005;SDS011;41888;44.696;10.522;2023-03-09T02:15:19;8.18;;;5.20;;
56005;SDS011;41888;44.696;10.522;2023-03-09T02:17:46;9.48;;;3.92;;
56005;SDS011;41888;44.696;10.522;2023-03-09T02:20:17;8.95;;;4.18;;
56005;SDS011;41888;44.696;10.522;2023-03-09T02:23:04;9.80;;;4.47;;
56005;SDS011;41888;44.696;10.522;2023-03-09T02:25:45;9.50;;;4.15;;
56005;SDS011;41888;44.696;10.522;2023-03-09T02:28:16;8.32;;;4.20;;
56005;SDS011;41888;44.696;10.522;2023-03-09T02:30:43;11.38;;;4.95;;
56005;SDS011;41888;44.696;10.522;2023-03-09T02:33:21;9.30;;;4.78;;
56005;SDS011;41888;44.696;10.522;2023-03-09T02:35:51;9.10;;;5.13;;
56005;SDS011;41888;44.696;10.522;2023-03-09T02:38:18;9.48;;;5.22;;
56005;SDS011;41888;44.696;10.522;2023-03-09T02:40:44;15.50;;;5.75;;
56005;SDS011;41888;44.696;10.522;2023-03-09T02:43:12;9.18;;;6.00;;
56005;SDS011;41888;44.696;10.522;2023-03-09T02:45:40;12.02;;;4.95;;
56005;SDS011;41888;44.696;10.522;2023-03-09T02:48:06;11.15;;;5.03;;
56005;SDS011;41888;44.696;10.522;2023-03-09T02:50:32;13.15;;;5.18;;
56005;SDS011;41888;44.696;10.522;2023-03-09T02:52:58;10.15;;;4.50;;
56005;SDS011;41888;44.696;10.522;2023-03-09T02:55:25;12.18;;;4.68;;
56005;SDS011;41888;44.696;10.522;2023-03-09T02:57:51;12.52;;;4.78;;
56005;SDS011;41888;44.696;10.522;2023-03-09T03:00:18;7.13;;;4.18;;
56005;SDS011;41888;44.696;10.522;2023-03-09T03:02:48;7.72;;;4.75;;
56005;SDS011;41888;44.696;10.522;2023-03-09T03:05:14;11.80;;;5.43;;
56005;SDS011;41888;44.696;10.522;2023-03-09T03:07:40;6.40;;;3.78;;
56005;SDS011;41888;44.696;10.522;2023-03-09T03:10:07;9.65;;;4.00;;
56005;SDS011;41888;44.696;10.522;2023-03-09T03:12:34;9.10;;;5.15;;
56005;SDS011;41888;44.696;10.522;2023-03-09T03:15:01;9.48;;;4.97;;
56005;SDS011;41888;44.696;10.522;2023-03-09T03:17:27;9.55;;;4.75;;
56005;SDS011;41888;44.696;10.522;2023-03-09T03:19:53;8.05;;;4.45;;
56005;SDS011;41888;44.696;10.522;2023-03-09T03:22:20;8.77;;;4.53;;
56005;SDS011;41888;44.696;10.522;2023-03-09T03:24:46;8.98;;;4.32;;
56005;SDS011;41888;44.696;10.522;2023-03-09T03:27:12;8.98;;;4.80;;
56005;SDS011;41888;44.696;10.522;2023-03-09T03:29:39;15.00;;;5.88;;
56005;SDS011;41888;44.696;10.522;2023-03-09T03:32:05;14.23;;;6.00;;
56005;SDS011;41888;44.696;10.522;2023-03-09T03:34:32;7.80;;;5.07;;
56005;SDS011;41888;44.696;10.522;2023-03-09T03:36:58;11.65;;;5.13;;
56005;SDS011;41888;44.696;10.522;2023-03-09T03:39:25;12.77;;;5.50;;
56005;SDS011;41888;44.696;10.522;2023-03-09T03:41:51;10.90;;;5.63;;
56005;SDS011;41888;44.696;10.522;2023-03-09T03:44:17;13.38;;;6.47;;
56005;SDS011;41888;44.696;10.522;2023-03-09T03:46:43;15.68;;;5.53;;
56005;SDS011;41888;44.696;10.522;2023-03-09T03:49:09;13.13;;;5.40;;
56005;SDS011;41888;44.696;10.522;2023-03-09T03:51:36;13.20;;;7.32;;
56005;SDS011;41888;44.696;10.522;2023-03-09T03:54:02;14.93;;;7.95;;
56005;SDS011;41888;44.696;10.522;2023-03-09T03:56:28;17.17;;;8.55;;
56005;SDS011;41888;44.696;10.522;2023-03-09T03:58:54;17.40;;;10.52;;
56005;SDS011;41888;44.696;10.522;2023-03-09T04:01:20;17.50;;;10.90;;
56005;SDS011;41888;44.696;10.522;2023-03-09T04:03:46;21.85;;;12.00;;
56005;SDS011;41888;44.696;10.522;2023-03-09T04:06:13;23.08;;;13.50;;
56005;SDS011;41888;44.696;10.522;2023-03-09T04:08:39;23.52;;;13.63;;
56005;SDS011;41888;44.696;10.522;2023-03-09T04:11:06;25.25;;;14.40;;
56005;SDS011;41888;44.696;10.522;2023-03-09T04:13:33;30.88;;;15.90;;
56005;SDS011;41888;44.696;10.522;2023-03-09T04:15:59;26.05;;;16.17;;
56005;SDS011;41888;44.696;10.522;2023-03-09T04:18:26;29.25;;;16.05;;
56005;SDS011;41888;44.696;10.522;2023-03-09T04:20:52;28.52;;;16.95;;
56005;SDS011;41888;44.696;10.522;2023-03-09T04:23:18;25.95;;;16.55;;
56005;SDS011;41888;44.696;10.522;2023-03-09T04:25:52;32.80;;;16.50;;
56005;SDS011;41888;44.696;10.522;2023-03-09T04:28:20;28.88;;;16.13;;
56005;SDS011;41888;44.696;10.522;2023-03-09T04:30:46;31.73;;;17.17;;
56005;SDS011;41888;44.696;10.522;2023-03-09T04:33:12;32.40;;;18.65;;
56005;SDS011;41888;44.696;10.522;2023-03-09T04:35:39;31.52;;;17.02;;
56005;SDS011;41888;44.696;10.522;2023-03-09T04:38:07;29.10;;;16.20;;
56005;SDS011;41888;44.696;10.522;2023-03-09T04:40:34;37.40;;;18.50;;
56005;SDS011;41888;44.696;10.522;2023-03-09T04:43:01;32.97;;;17.65;;
56005;SDS011;41888;44.696;10.522;2023-03-09T04:45:27;30.92;;;16.77;;
56005;SDS011;41888;44.696;10.522;2023-03-09T04:47:54;30.42;;;18.48;;
56005;SDS011;41888;44.696;10.522;2023-03-09T04:50:21;31.67;;;17.23;;
56005;SDS011;41888;44.696;10.522;2023-03-09T04:52:47;26.50;;;16.05;;
56005;SDS011;41888;44.696;10.522;2023-03-09T04:55:15;27.10;;;17.02;;
56005;SDS011;41888;44.696;10.522;2023-03-09T04:57:42;36.25;;;18.95;;
56005;SDS011;41888;44.696;10.522;2023-03-09T05:00:09;31.25;;;18.38;;
56005;SDS011;41888;44.696;10.522;2023-03-09T05:02:37;30.98;;;17.95;;
56005;SDS011;41888;44.696;10.522;2023-03-09T05:05:04;28.50;;;16.67;;
56005;SDS011;41888;44.696;10.522;2023-03-09T05:07:32;29.88;;;17.35;;
56005;SDS011;41888;44.696;10.522;2023-03-09T05:09:58;26.80;;;17.20;;
56005;SDS011;41888;44.696;10.522;2023-03-09T05:12:24;29.67;;;17.52;;
56005;SDS011;41888;44.696;10.522;2023-03-09T05:14:59;28.15;;;17.83;;
56005;SDS011;41888;44.696;10.522;2023-03-09T05:17:26;29.83;;;16.50;;
56005;SDS011;41888;44.696;10.522;2023-03-09T05:19:53;25.38;;;15.40;;
56005;SDS011;41888;44.696;10.522;2023-03-09T05:22:20;27.27;;;15.68;;
56005;SDS011;41888;44.696;10.522;2023-03-09T05:24:46;30.25;;;15.35;;
56005;SDS011;41888;44.696;10.522;2023-03-09T05:27:12;30.35;;;15.93;;
56005;SDS011;41888;44.696;10.522;2023-03-09T05:29:39;33.28;;;16.67;;
56005;SDS011;41888;44.696;10.522;2023-03-09T05:32:06;26.17;;;15.27;;
56005;SDS011;41888;44.696;10.522;2023-03-09T05:34:33;30.17;;;16.85;;
56005;SDS011;41888;44.696;10.522;2023-03-09T05:36:59;25.33;;;15.32;;
56005;SDS011;41888;44.696;10.522;2023-03-09T05:39:26;29.30;;;14.63;;
56005;SDS011;41888;44.696;10.522;2023-03-09T05:41:52;22.52;;;14.55;;
56005;SDS011;41888;44.696;10.522;2023-03-09T05:44:19;28.33;;;15.43;;
56005;SDS011;41888;44.696;10.522;2023-03-09T05:46:45;24.20;;;14.70;;
56005;SDS011;41888;44.696;10.522;2023-03-09T05:49:11;22.98;;;13.95;;
56005;SDS011;41888;44.696;10.522;2023-03-09T05:51:37;27.80;;;15.15;;
56005;SDS011;41888;44.696;10.522;2023-03-09T05:54:04;25.58;;;15.23;;
56005;SDS011;41888;44.696;10.522;2023-03-09T05:56:30;25.95;;;14.93;;
56005;SDS011;41888;44.696;10.522;2023-03-09T05:58:56;25.50;;;14.85;;
56005;SDS011;41888;44.696;10.522;2023-03-09T06:01:23;27.02;;;14.95;;
56005;SDS011;41888;44.696;10.522;2023-03-09T06:03:52;24.85;;;15.05;;
56005;SDS011;41888;44.696;10.522;2023-03-09T06:06:20;27.95;;;15.40;;
56005;SDS011;41888;44.696;10.522;2023-03-09T06:08:47;25.60;;;13.35;;
56005;SDS011;41888;44.696;10.522;2023-03-09T06:11:13;23.38;;;13.57;;
56005;SDS011;41888;44.696;10.522;2023-03-09T06:13:40;24.25;;;14.18;;
56005;SDS011;41888;44.696;10.522;2023-03-09T06:16:07;27.77;;;14.77;;
56005;SDS011;41888;44.696;10.522;2023-03-09T06:18:36;24.55;;;13.60;;
56005;SDS011;41888;44.696;10.522;2023-03-09T06:21:04;30.23;;;15.07;;
56005;SDS011;41888;44.696;10.522;2023-03-09T06:23:32;25.80;;;14.95;;
56005;SDS011;41888;44.696;10.522;2023-03-09T06:26:01;22.17;;;13.55;;
56005;SDS011;41888;44.696;10.522;2023-03-09T06:28:28;26.45;;;14.88;;
56005;SDS011;41888;44.696;10.522;2023-03-09T06:30:54;22.80;;;13.43;;
56005;SDS011;41888;44.696;10.522;2023-03-09T06:33:20;23.83;;;13.05;;
56005;SDS011;41888;44.696;10.522;2023-03-09T06:35:46;25.30;;;12.27;;
56005;SDS011;41888;44.696;10.522;2023-03-09T06:38:13;21.00;;;13.02;;
56005;SDS011;41888;44.696;10.522;2023-03-09T06:40:39;20.10;;;11.60;;
56005;SDS011;41888;44.696;10.522;2023-03-09T06:43:05;18.95;;;10.93;;
56005;SDS011;41888;44.696;10.522;2023-03-09T06:45:32;18.88;;;12.43;;
56005;SDS011;41888;44.696;10.522;2023-03-09T06:47:58;18.38;;;10.50;;
56005;SDS011;41888;44.696;10.522;2023-03-09T06:50:25;16.65;;;10.52;;
56005;SDS011;41888;44.696;10.522;2023-03-09T06:52:51;18.85;;;12.00;;
56005;SDS011;41888;44.696;10.522;2023-03-09T06:55:17;22.40;;;10.82;;
56005;SDS011;41888;44.696;10.522;2023-03-09T06:57:44;21.98;;;10.98;;
56005;SDS011;41888;44.696;10.522;2023-03-09T07:00:10;19.80;;;10.80;;
56005;SDS011;41888;44.696;10.522;2023-03-09T07:02:38;19.27;;;9.77;;
56005;SDS011;41888;44.696;10.522;2023-03-09T07:05:07;13.93;;;10.38;;
56005;SDS011;41888;44.696;10.522;2023-03-09T07:07:34;16.55;;;10.20;;
56005;SDS011;41888;44.696;10.522;2023-03-09T07:10:01;15.25;;;9.75;;
56005;SDS011;41888;44.696;10.522;2023-03-09T07:12:28;17.63;;;10.30;;
56005;SDS011;41888;44.696;10.522;2023-03-09T07:14:54;19.08;;;10.20;;
56005;SDS011;41888;44.696;10.522;2023-03-09T07:17:21;17.08;;;10.60;;
56005;SDS011;41888;44.696;10.522;2023-03-09T07:19:47;15.35;;;9.40;;
56005;SDS011;41888;44.696;10.522;2023-03-09T07:22:13;15.13;;;10.13;;
56005;SDS011;41888;44.696;10.522;2023-03-09T07:24:39;20.95;;;10.38;;
56005;SDS011;41888;44.696;10.522;2023-03-09T07:27:06;15.27;;;9.60;;
56005;SDS011;41888;44.696;10.522;2023-03-09T07:29:33;14.40;;;9.02;;
56005;SDS011;41888;44.696;10.522;2023-03-09T07:32:00;16.85;;;9.48;;
56005;SDS011;41888;44.696;10.522;2023-03-09T07:34:27;18.27;;;10.65;;
56005;SDS011;41888;44.696;10.522;2023-03-09T07:36:55;11.18;;;7.80;;
56005;SDS011;41888;44.696;10.522;2023-03-09T07:39:22;14.77;;;8.20;;
56005;SDS011;41888;44.696;10.522;2023-03-09T07:41:48;17.60;;;9.02;;
56005;SDS011;41888;44.696;10.522;2023-03-09T07:44:14;20.33;;;7.85;;
56005;SDS011;41888;44.696;10.522;2023-03-09T07:46:40;17.83;;;8.38;;
56005;SDS011;41888;44.696;10.522;2023-03-09T07:49:07;13.32;;;7.90;;
56005;SDS011;41888;44.696;10.522;2023-03-09T07:51:33;15.30;;;7.20;;
56005;SDS011;41888;44.696;10.522;2023-03-09T07:54:03;13.57;;;8.07;;
56005;SDS011;41888;44.696;10.522;2023-03-09T07:56:31;13.48;;;7.68;;
56005;SDS011;41888;44.696;10.522;2023-03-09T07:58:57;16.00;;;7.03;;
56005;SDS011;41888;44.696;10.522;2023-03-09T08:01:23;12.73;;;8.07;;
56005;SDS011;41888;44.696;10.522;2023-03-09T08:03:52;15.90;;;8.23;;
56005;SDS011;41888;44.696;10.522;2023-03-09T08:06:18;18.10;;;8.27;;
56005;SDS011;41888;44.696;10.522;2023-03-09T08:08:44;15.80;;;6.90;;
56005;SDS011;41888;44.696;10.522;2023-03-09T08:11:11;11.32;;;7.38;;
56005;SDS011;41888;44.696;10.522;2023-03-09T08:13:38;10.43;;;6.95;;
56005;SDS011;41888;44.696;10.522;2023-03-09T08:16:05;13.45;;;7.47;;
56005;SDS011;41888;44.696;10.522;2023-03-09T08:18:33;13.35;;;7.35;;
56005;SDS011;41888;44.696;10.522;2023-03-09T08:21:06;13.10;;;7.95;;
56005;SDS011;41888;44.696;10.522;2023-03-09T08:23:37;12.30;;;7.10;;
56005;SDS011;41888;44.696;10.522;2023-03-09T08:26:09;12.95;;;7.30;;
56005;SDS011;41888;44.696;10.522;2023-03-09T08:28:38;15.52;;;7.32;;
56005;SDS011;41888;44.696;10.522;2023-03-09T08:31:04;15.50;;;6.97;;
56005;SDS011;41888;44.696;10.522;2023-03-09T08:33:31;15.68;;;7.28;;
56005;SDS011;41888;44.696;10.522;2023-03-09T08:35:58;15.07;;;8.07;;
56005;SDS011;41888;44.696;10.522;2023-03-09T08:38:24;14.18;;;8.05;;
56005;SDS011;41888;44.696;10.522;2023-03-09T08:40:50;12.77;;;7.22;;
56005;SDS011;41888;44.696;10.522;2023-03-09T08:43:16;15.85;;;7.60;;
56005;SDS011;41888;44.696;10.522;2023-03-09T08:45:42;16.77;;;7.68;;
56005;SDS011;41888;44.696;10.522;2023-03-09T08:48:09;12.57;;;7.45;;
56005;SDS011;41888;44.696;10.522;2023-03-09T08:50:35;11.93;;;7.30;;
56005;SDS011;41888;44.696;10.522;2023-03-09T08:53:01;14.75;;;7.88;;
56005;SDS011;41888;44.696;10.522;2023-03-09T08:55:28;16.55;;;8.00;;
56005;SDS011;41888;44.696;10.522;2023-03-09T08:57:54;12.95;;;7.90;;
56005;SDS011;41888;44.696;10.522;2023-03-09T09:00:21;14.07;;;8.07;;
56005;SDS011;41888;44.696;10.522;2023-03-09T09:02:47;17.02;;;8.30;;
56005;SDS011;41888;44.696;10.522;2023-03-09T09:05:14;15.15;;;8.68;;
56005;SDS011;41888;44.696;10.522;2023-03-09T09:07:40;15.23;;;8.75;;
56005;SDS011;41888;44.696;10.522;2023-03-09T09:10:06;14.88;;;8.65;;
56005;SDS011;41888;44.696;10.522;2023-03-09T09:12:33;15.85;;;8.05;;
56005;SDS011;41888;44.696;10.522;2023-03-09T09:15:02;14.45;;;8.32;;
56005;SDS011;41888;44.696;10.522;2023-03-09T09:17:30;23.95;;;9.00;;
56005;SDS011;41888;44.696;10.522;2023-03-09T09:19:56;14.23;;;8.48;;
56005;SDS011;41888;44.696;10.522;2023-03-09T09:22:22;15.25;;;9.43;;
56005;SDS011;41888;44.696;10.522;2023-03-09T09:24:49;17.08;;;8.77;;
56005;SDS011;41888;44.696;10.522;2023-03-09T09:27:15;15.05;;;8.55;;
56005;SDS011;41888;44.696;10.522;2023-03-09T09:29:41;15.85;;;9.43;;
56005;SDS011;41888;44.696;10.522;2023-03-09T09:32:07;19.60;;;9.73;;
56005;SDS011;41888;44.696;10.522;2023-03-09T09:34:34;14.45;;;8.52;;
56005;SDS011;41888;44.696;10.522;2023-03-09T09:37:00;17.02;;;8.77;;
56005;SDS011;41888;44.696;10.522;2023-03-09T09:39:28;13.57;;;8.68;;
56005;SDS011;41888;44.696;10.522;2023-03-09T09:42:01;19.23;;;9.60;;
56005;SDS011;41888;44.696;10.522;2023-03-09T09:44:43;12.05;;;8.77;;
56005;SDS011;41888;44.696;10.522;2023-03-09T09:47:13;15.55;;;9.35;;
56005;SDS011;41888;44.696;10.522;2023-03-09T09:49:48;16.73;;;8.90;;
56005;SDS011;41888;44.696;10.522;2023-03-09T10:02:52;15.32;;;8.88;;
56005;SDS011;41888;44.696;10.522;2023-03-09T10:05:42;17.67;;;8.88;;
56005;SDS011;41888;44.696;10.522;2023-03-09T10:08:33;14.15;;;8.63;;
56005;SDS011;41888;44.696;10.522;2023-03-09T10:11:34;19.63;;;9.70;;
56005;SDS011;41888;44.696;10.522;2023-03-09T10:14:32;12.23;;;8.35;;
56005;SDS011;41888;44.696;10.522;2023-03-09T10:20:35;14.40;;;8.30;;
56005;SDS011;41888;44.696;10.522;2023-03-09T10:23:01;15.32;;;7.95;;
56005;SDS011;41888;44.696;10.522;2023-03-09T10:25:45;20.25;;;9.85;;
56005;SDS011;41888;44.696;10.522;2023-03-09T10:28:20;12.80;;;7.70;;
56005;SDS011;41888;44.696;10.522;2023-03-09T10:30:54;12.63;;;8.63;;
56005;SDS011;41888;44.696;10.522;2023-03-09T10:33:40;15.40;;;7.88;;
56005;SDS011;41888;44.696;10.522;2023-03-09T10:36:29;17.23;;;8.48;;
56005;SDS011;41888;44.696;10.522;2023-03-09T10:39:18;13.38;;;7.95;;
56005;SDS011;41888;44.696;10.522;2023-03-09T10:41:44;14.40;;;7.18;;
56005;SDS011;41888;44.696;10.522;2023-03-09T10:44:12;15.27;;;8.23;;
56005;SDS011;41888;44.696;10.522;2023-03-09T10:46:54;14.15;;;8.05;;
56005;SDS011;41888;44.696;10.522;2023-03-09T10:49:20;18.67;;;8.73;;
56005;SDS011;41888;44.696;10.522;2023-03-09T10:56:55;13.85;;;8.75;;
56005;SDS011;41888;44.696;10.522;2023-03-09T10:59:22;18.40;;;9.07;;
56005;SDS011;41888;44.696;10.522;2023-03-09T11:01:52;13.68;;;9.02;;
56005;SDS011;41888;44.696;10.522;2023-03-09T11:09:19;16.20;;;8.95;;
56005;SDS011;41888;44.696;10.522;2023-03-09T11:11:50;18.20;;;8.77;;
56005;SDS011;41888;44.696;10.522;2023-03-09T11:14:21;14.80;;;7.93;;
56005;SDS011;41888;44.696;10.522;2023-03-09T11:16:51;16.27;;;8.23;;
56005;SDS011;41888;44.696;10.522;2023-03-09T11:19:20;15.80;;;8.32;;
56005;SDS011;41888;44.696;10.522;2023-03-09T11:21:57;13.98;;;8.30;;
56005;SDS011;41888;44.696;10.522;2023-03-09T11:24:36;16.30;;;8.73;;
56005;SDS011;41888;44.696;10.522;2023-03-09T11:27:11;16.13;;;8.88;;
56005;SDS011;41888;44.696;10.522;2023-03-09T11:32:27;14.23;;;8.80;;
56005;SDS011;41888;44.696;10.522;2023-03-09T11:34:54;17.42;;;8.80;;
56005;SDS011;41888;44.696;10.522;2023-03-09T11:37:26;15.07;;;7.95;;
56005;SDS011;41888;44.696;10.522;2023-03-09T11:40:02;19.48;;;9.40;;
56005;SDS011;41888;44.696;10.522;2023-03-09T11:42:53;12.05;;;7.38;;
56005;SDS011;41888;44.696;10.522;2023-03-09T11:45:21;15.43;;;8.57;;
56005;SDS011;41888;44.696;10.522;2023-03-09T11:50:24;14.02;;;8.98;;
56005;SDS011;41888;44.696;10.522;2023-03-09T11:52:57;18.20;;;9.32;;
56005;SDS011;41888;44.696;10.522;2023-03-09T11:56:01;15.45;;;9.18;;
56005;SDS011;41888;44.696;10.522;2023-03-09T11:58:22;14.18;;;9.20;;
56005;SDS011;41888;44.696;10.522;2023-03-09T12:01:02;14.68;;;8.73;;
56005;SDS011;41888;44.696;10.522;2023-03-09T12:04:01;14.90;;;8.85;;
56005;SDS011;41888;44.696;10.522;2023-03-09T12:06:37;14.52;;;8.25;;
56005;SDS011;41888;44.696;10.522;2023-03-09T12:15:20;18.55;;;9.57;;
56005;SDS011;41888;44.696;10.522;2023-03-09T12:18:02;13.63;;;7.50;;
56005;SDS011;41888;44.696;10.522;2023-03-09T12:20:36;16.80;;;9.43;;
56005;SDS011;41888;44.696;10.522;2023-03-09T12:23:05;15.57;;;9.82;;
56005;SDS011;41888;44.696;10.522;2023-03-09T12:26:03;17.40;;;10.38;;
56005;SDS011;41888;44.696;10.522;2023-03-09T12:28:31;21.60;;;10.75;;
56005;SDS011;41888;44.696;10.522;2023-03-09T12:30:59;22.02;;;11.57;;
56005;SDS011;41888;44.696;10.522;2023-03-09T12:34:22;15.00;;;9.00;;
56005;SDS011;41888;44.696;10.522;2023-03-09T12:36:27;19.17;;;10.82;;
56005;SDS011;41888;44.696;10.522;2023-03-09T12:47:41;19.75;;;9.88;;
56005;SDS011;41888;44.696;10.522;2023-03-09T13:03:30;18.67;;;9.75;;
56005;SDS011;41888;44.696;10.522;2023-03-09T13:06:20;23.45;;;9.50;;
56005;SDS011;41888;44.696;10.522;2023-03-09T13:08:51;17.13;;;9.48;;
56005;SDS011;41888;44.696;10.522;2023-03-09T13:13:54;17.08;;;8.70;;
56005;SDS011;41888;44.696;10.522;2023-03-09T13:21:43;19.02;;;11.05;;
56005;SDS011;41888;44.696;10.522;2023-03-09T13:24:19;20.65;;;10.27;;
56005;SDS011;41888;44.696;10.522;2023-03-09T13:26:51;17.67;;;9.73;;
56005;SDS011;41888;44.696;10.522;2023-03-09T13:29:22;16.38;;;9.30;;
56005;SDS011;41888;44.696;10.522;2023-03-09T13:31:51;17.73;;;10.18;;
56005;SDS011;41888;44.696;10.522;2023-03-09T13:34:20;20.17;;;10.82;;
56005;SDS011;41888;44.696;10.522;2023-03-09T13:36:50;18.77;;;10.93;;
56005;SDS011;41888;44.696;10.522;2023-03-09T13:39:20;19.08;;;9.55;;
56005;SDS011;41888;44.696;10.522;2023-03-09T13:41:49;15.65;;;9.55;;
56005;SDS011;41888;44.696;10.522;2023-03-09T13:44:20;18.75;;;10.25;;
56005;SDS011;41888;44.696;10.522;2023-03-09T13:46:51;18.55;;;9.20;;
56005;SDS011;41888;44.696;10.522;2023-03-09T13:49:24;17.45;;;8.55;;
56005;SDS011;41888;44.696;10.522;2023-03-09T13:51:56;17.30;;;8.75;;
56005;SDS011;41888;44.696;10.522;2023-03-09T13:54:32;18.67;;;9.00;;
56005;SDS011;41888;44.696;10.522;2023-03-09T14:00:27;19.70;;;9.20;;
56005;SDS011;41888;44.696;10.522;2023-03-09T14:02:41;15.38;;;8.43;;
56005;SDS011;41888;44.696;10.522;2023-03-09T14:07:53;15.90;;;8.70;;
56005;SDS011;41888;44.696;10.522;2023-03-09T14:12:59;15.07;;;7.85;;
56005;SDS011;41888;44.696;10.522;2023-03-09T14:15:26;15.32;;;8.65;;
56005;SDS011;41888;44.696;10.522;2023-03-09T14:17:53;16.92;;;8.38;;
56005;SDS011;41888;44.696;10.522;2023-03-09T14:22:49;12.85;;;7.97;;
56005;SDS011;41888;44.696;10.522;2023-03-09T14:25:34;16.73;;;8.48;;
56005;SDS011;41888;44.696;10.522;2023-03-09T14:28:01;18.05;;;8.25;;
56005;SDS011;41888;44.696;10.522;2023-03-09T14:33:06;16.77;;;9.40;;
56005;SDS011;41888;44.696;10.522;2023-03-09T14:35:46;14.80;;;8.55;;
56005;SDS011;41888;44.696;10.522;2023-03-09T14:40:43;15.57;;;8.70;;
56005;SDS011;41888;44.696;10.522;2023-03-09T14:43:20;15.65;;;8.85;;
56005;SDS011;41888;44.696;10.522;2023-03-09T14:45:49;16.00;;;8.75;;
56005;SDS011;41888;44.696;10.522;2023-03-09T14:48:17;19.50;;;10.30;;
56005;SDS011;41888;44.696;10.522;2023-03-09T14:50:43;18.08;;;9.52;;
56005;SDS011;41888;44.696;10.522;2023-03-09T14:53:13;19.58;;;9.15;;
56005;SDS011;41888;44.696;10.522;2023-03-09T14:55:41;17.67;;;9.90;;
56005;SDS011;41888;44.696;10.522;2023-03-09T14:58:10;22.17;;;9.15;;
56005;SDS011;41888;44.696;10.522;2023-03-09T15:00:37;14.07;;;8.98;;
56005;SDS011;41888;44.696;10.522;2023-03-09T15:03:05;15.32;;;8.73;;
56005;SDS011;41888;44.696;10.522;2023-03-09T15:05:32;14.98;;;7.13;;
56005;SDS011;41888;44.696;10.522;2023-03-09T15:07:58;14.30;;;7.35;;
56005;SDS011;41888;44.696;10.522;2023-03-09T15:10:24;19.05;;;9.45;;
56005;SDS011;41888;44.696;10.522;2023-03-09T15:12:52;20.20;;;8.57;;
56005;SDS011;41888;44.696;10.522;2023-03-09T15:15:23;17.77;;;8.98;;
56005;SDS011;41888;44.696;10.522;2023-03-09T15:17:51;18.27;;;8.43;;
56005;SDS011;41888;44.696;10.522;2023-03-09T15:20:21;17.17;;;8.18;;
56005;SDS011;41888;44.696;10.522;2023-03-09T15:22:49;15.98;;;7.82;;
56005;SDS011;41888;44.696;10.522;2023-03-09T15:25:16;17.23;;;8.20;;
56005;SDS011;41888;44.696;10.522;2023-03-09T15:27:43;16.63;;;8.30;;
56005;SDS011;41888;44.696;10.522;2023-03-09T15:30:15;16.42;;;7.47;;
56005;SDS011;41888;44.696;10.522;2023-03-09T15:32:43;12.88;;;7.20;;
56005;SDS011;41888;44.696;10.522;2023-03-09T15:35:11;22.00;;;10.10;;
56005;SDS011;41888;44.696;10.522;2023-03-09T15:37:41;18.27;;;5.97;;
56005;SDS011;41888;44.696;10.522;2023-03-09T15:40:08;10.57;;;4.80;;
56005;SDS011;41888;44.696;10.522;2023-03-09T15:42:42;10.40;;;4.88;;
56005;SDS011;41888;44.696;10.522;2023-03-09T15:45:13;13.43;;;6.18;;
56005;SDS011;41888;44.696;10.522;2023-03-09T15:47:41;11.93;;;6.07;;
56005;SDS011;41888;44.696;10.522;2023-03-09T15:50:08;13.80;;;6.22;;
56005;SDS011;41888;44.696;10.522;2023-03-09T15:52:36;15.40;;;7.80;;
56005;SDS011;41888;44.696;10.522;2023-03-09T15:55:03;13.45;;;7.75;;
56005;SDS011;41888;44.696;10.522;2023-03-09T15:57:30;14.18;;;7.82;;